Aviation Digital Data Service (ADDS)

Output produced by METARs form (0032 UTC 20 August 2017)
found at http://aviationweather.gov/adds/metars/
 
KPHL 192322Z 2000/2106 24005KT P6SM SCT070 
     FM200800 30004KT P6SM FEW250